createdAt,value
2022-12-11T00:01:52.857Z,100789.03
2022-12-11T00:04:38.476Z,100794.22
2022-12-11T00:07:23.883Z,100798.53
2022-12-11T00:10:11.398Z,100792.63
2022-12-11T00:12:56.652Z,100796.91
2022-12-11T00:15:42.026Z,100789.22
2022-12-11T00:18:27.303Z,100783.28
2022-12-11T00:21:15.167Z,100787.66
2022-12-11T00:24:00.974Z,100780.91
2022-12-11T00:26:46.315Z,100781.78
2022-12-11T00:29:33.203Z,100784.41
2022-12-11T00:32:18.702Z,100785.41
2022-12-11T00:35:04.332Z,100782.91
2022-12-11T00:37:49.947Z,100786.31
2022-12-11T00:40:36.933Z,100793.22
2022-12-11T00:43:22.528Z,100791.56
2022-12-11T00:46:08.000Z,100787.03
2022-12-11T00:48:53.787Z,100775.66
2022-12-11T00:51:39.060Z,100777.41
2022-12-11T00:54:24.424Z,100776.44
2022-12-11T00:57:09.928Z,100781.63
2022-12-11T00:59:55.353Z,100772.97
2022-12-11T01:02:40.823Z,100778.03
2022-12-11T01:05:26.772Z,100773.88
2022-12-11T01:08:12.348Z,100777.34
2022-12-11T01:11:10.514Z,100770.47
2022-12-11T01:13:55.905Z,100770.56
2022-12-11T01:16:41.237Z,100772.28
2022-12-11T01:19:26.539Z,100773.13
2022-12-11T01:22:11.689Z,100764.69
2022-12-11T01:24:57.074Z,100765.50
2022-12-11T01:27:42.328Z,100768.13
2022-12-11T01:30:27.925Z,100773.38
2022-12-11T01:33:13.689Z,100771.03
2022-12-11T01:35:59.520Z,100763.38
2022-12-11T01:38:46.155Z,100769.38
2022-12-11T01:41:31.782Z,100766.75
2022-12-11T01:44:17.098Z,100766.75
2022-12-11T01:47:02.409Z,100763.13
2022-12-11T01:49:47.604Z,100758.75
2022-12-11T01:52:33.654Z,100761.28
2022-12-11T01:55:20.608Z,100763.56
2022-12-11T01:58:07.330Z,100758.13
2022-12-11T02:00:53.624Z,100755.50
2022-12-11T02:03:39.352Z,100749.34
2022-12-11T02:06:30.888Z,100748.50
2022-12-11T02:09:24.305Z,100751.78
2022-12-11T02:12:30.787Z,100752.81
2022-12-11T02:15:31.663Z,100755.56
2022-12-11T02:18:27.405Z,100762.63
2022-12-11T02:21:33.609Z,100773.06
2022-12-11T02:24:31.156Z,100780.97
2022-12-11T02:27:48.906Z,100774.78
2022-12-11T02:30:37.298Z,100777.22
2022-12-11T02:33:33.361Z,100776.25
2022-12-11T02:36:22.747Z,100773.50
2022-12-11T02:39:13.120Z,100793.91
2022-12-11T02:41:59.861Z,100788.72
2022-12-11T02:44:48.077Z,100785.25
2022-12-11T02:47:33.795Z,100788.66
2022-12-11T02:50:23.532Z,100788.03
2022-12-11T02:53:12.390Z,100787.22
2022-12-11T02:56:09.265Z,100788.09
2022-12-11T02:59:09.007Z,100782.97
2022-12-11T03:01:54.553Z,100770.28
2022-12-11T03:04:41.446Z,100768.75
2022-12-11T03:07:31.908Z,100764.53
2022-12-11T03:10:19.189Z,100766.25
2022-12-11T03:13:05.440Z,100774.22
2022-12-11T03:16:09.292Z,100774.41
2022-12-11T03:19:02.171Z,100779.78
2022-12-11T03:21:58.034Z,100782.50
2022-12-11T03:24:43.343Z,100780.72
2022-12-11T03:27:59.172Z,100768.66
2022-12-11T03:30:46.560Z,100777.78
2022-12-11T03:33:37.618Z,100774.28
2022-12-11T03:36:27.361Z,100773.31
2022-12-11T03:39:22.985Z,100769.72
2022-12-11T03:42:12.137Z,100769.53
2022-12-11T03:44:59.068Z,100769.25
2022-12-11T03:47:47.439Z,100768.25
2022-12-11T03:50:35.455Z,100770.09
2022-12-11T03:53:21.816Z,100767.53
2022-12-11T03:56:11.216Z,100769.81
2022-12-11T03:58:56.866Z,100769.00
2022-12-11T04:01:42.516Z,100770.81
2022-12-11T04:04:28.197Z,100765.69
2022-12-11T04:07:13.505Z,100764.56
2022-12-11T04:10:00.329Z,100765.91
2022-12-11T04:12:45.929Z,100765.06
2022-12-11T04:15:31.436Z,100764.00
2022-12-11T04:18:35.319Z,100760.59
2022-12-11T04:21:40.016Z,100766.88
2022-12-11T04:24:25.878Z,100772.00
2022-12-11T04:27:11.225Z,100772.75
2022-12-11T04:29:56.478Z,100775.38
2022-12-11T04:32:41.930Z,100769.44
2022-12-11T04:35:27.246Z,100754.84
2022-12-11T04:38:12.895Z,100753.94
2022-12-11T04:41:03.525Z,100758.09
2022-12-11T04:43:49.203Z,100751.31
2022-12-11T04:46:35.843Z,100747.66
2022-12-11T04:49:21.087Z,100737.75
2022-12-11T04:52:06.470Z,100741.56
2022-12-11T04:54:51.940Z,100729.22
2022-12-11T04:57:37.444Z,100733.97
2022-12-11T05:00:23.246Z,100739.69
2022-12-11T05:03:09.608Z,100738.66
2022-12-11T05:05:55.210Z,100745.28
2022-12-11T05:08:43.003Z,100740.00
2022-12-11T05:11:28.310Z,100746.09
2022-12-11T05:14:14.161Z,100744.47
2022-12-11T05:17:00.070Z,100751.59
2022-12-11T05:19:48.037Z,100756.13
2022-12-11T05:22:33.685Z,100757.88
2022-12-11T05:25:19.321Z,100760.72
2022-12-11T05:28:04.767Z,100753.09
2022-12-11T05:30:58.665Z,100759.84
2022-12-11T05:33:45.454Z,100750.25
2022-12-11T05:36:33.936Z,100749.41
2022-12-11T05:39:19.934Z,100756.19
2022-12-11T05:42:05.622Z,100751.91
2022-12-11T05:44:51.376Z,100757.94
2022-12-11T05:47:36.676Z,100758.75
2022-12-11T05:50:22.058Z,100759.53
2022-12-11T05:53:07.536Z,100766.50
2022-12-11T05:55:52.862Z,100769.13
2022-12-11T05:58:39.013Z,100775.28
2022-12-11T06:01:31.998Z,100779.66
2022-12-11T06:04:17.745Z,100771.03
2022-12-11T06:07:03.575Z,100775.28
2022-12-11T06:09:48.935Z,100770.88
2022-12-11T06:12:34.334Z,100770.75
2022-12-11T06:15:19.563Z,100778.97
2022-12-11T06:18:04.972Z,100769.13
2022-12-11T06:20:50.279Z,100777.34
2022-12-11T06:23:35.775Z,100778.88
2022-12-11T06:26:22.063Z,100786.56
2022-12-11T06:29:10.936Z,100787.41
2022-12-11T06:31:58.796Z,100777.94
2022-12-11T06:34:44.693Z,100784.00
2022-12-11T06:37:29.918Z,100784.25
2022-12-11T06:40:15.842Z,100779.59
2022-12-11T06:43:01.125Z,100793.69
2022-12-11T06:45:46.588Z,100782.03
2022-12-11T06:48:32.308Z,100780.34
2022-12-11T06:51:21.235Z,100779.31
2022-12-11T06:54:06.677Z,100770.75
2022-12-11T06:56:51.942Z,100766.25
2022-12-11T06:59:37.297Z,100766.25
2022-12-11T07:02:23.160Z,100773.00
2022-12-11T07:05:09.382Z,100771.22
2022-12-11T07:07:55.155Z,100763.41
2022-12-11T07:10:41.377Z,100768.59
2022-12-11T07:13:26.719Z,100765.91
2022-12-11T07:16:14.089Z,100757.41
2022-12-11T07:18:59.400Z,100765.91
2022-12-11T07:21:44.674Z,100763.28
2022-12-11T07:24:29.992Z,100763.41
2022-12-11T07:27:15.394Z,100765.38
2022-12-11T07:30:00.841Z,100771.22
2022-12-11T07:32:46.285Z,100767.09
2022-12-11T07:35:33.908Z,100767.09
2022-12-11T07:38:19.277Z,100774.78
2022-12-11T07:41:08.889Z,100770.44
2022-12-11T07:43:55.276Z,100766.03
2022-12-11T07:46:40.803Z,100768.53
2022-12-11T07:49:26.277Z,100777.81
2022-12-11T07:52:11.817Z,100770.84
2022-12-11T07:54:57.604Z,100776.03
2022-12-11T07:57:42.978Z,100777.81
2022-12-11T08:00:28.349Z,100782.06
2022-12-11T08:03:13.707Z,100784.56
2022-12-11T08:05:59.023Z,100781.16
2022-12-11T08:08:44.949Z,100782.94
2022-12-11T08:11:30.836Z,100783.00
2022-12-11T08:14:16.472Z,100787.41
2022-12-11T08:17:02.730Z,100777.28
2022-12-11T08:19:48.299Z,100784.44
2022-12-11T08:22:34.614Z,100778.50
2022-12-11T08:25:19.984Z,100787.28
2022-12-11T08:28:05.470Z,100794.84
2022-12-11T08:30:50.931Z,100793.09
2022-12-11T08:33:37.780Z,100795.66
2022-12-11T08:36:24.619Z,100800.84
2022-12-11T08:39:10.203Z,100800.78
2022-12-11T08:41:57.331Z,100800.63
2022-12-11T08:44:42.755Z,100803.81
2022-12-11T08:47:28.062Z,100803.44
2022-12-11T08:50:13.411Z,100806.84
2022-12-11T08:52:59.207Z,100806.69
2022-12-11T08:55:44.647Z,100802.38
2022-12-11T08:58:30.254Z,100808.56
2022-12-11T09:01:19.300Z,100803.59
2022-12-11T09:04:05.063Z,100810.53
2022-12-11T09:06:50.467Z,100817.41
2022-12-11T09:09:35.757Z,100814.72
2022-12-11T09:12:21.255Z,100819.84
2022-12-11T09:15:07.191Z,100817.47
2022-12-11T09:17:52.698Z,100815.88
2022-12-11T09:20:38.170Z,100818.66
2022-12-11T09:23:23.584Z,100816.88
2022-12-11T09:26:13.697Z,100811.56
2022-12-11T09:28:59.422Z,100819.03
2022-12-11T09:31:46.537Z,100817.22
2022-12-11T09:34:32.439Z,100819.91
2022-12-11T09:37:18.450Z,100826.19
2022-12-11T09:40:07.796Z,100824.91
2022-12-11T09:43:01.277Z,100822.69
2022-12-11T09:45:47.381Z,100835.63
2022-12-11T09:48:35.315Z,100834.13
2022-12-11T09:51:44.090Z,100834.38
2022-12-11T09:54:29.918Z,100829.19
2022-12-11T09:57:45.863Z,100819.84
2022-12-11T10:00:40.326Z,100815.72
2022-12-11T10:03:55.109Z,100811.50
2022-12-11T10:07:09.030Z,100814.19
2022-12-11T10:10:12.077Z,100815.28
2022-12-11T10:13:26.739Z,100811.13
2022-12-11T10:16:37.572Z,100818.28
2022-12-11T10:19:32.107Z,100817.53
2022-12-11T10:22:23.792Z,100816.31
2022-12-11T10:25:21.928Z,100819.69
2022-12-11T10:28:28.091Z,100816.31
2022-12-11T10:31:20.027Z,100817.28
2022-12-11T10:34:15.051Z,100811.34
2022-12-11T10:37:02.305Z,100810.59
2022-12-11T10:39:47.750Z,100814.97
2022-12-11T10:42:33.100Z,100805.72
2022-12-11T10:45:18.625Z,100808.41
2022-12-11T10:48:11.380Z,100808.63
2022-12-11T10:51:07.247Z,100800.31
2022-12-11T10:54:06.915Z,100804.81
2022-12-11T10:56:53.294Z,100806.69
2022-12-11T10:59:38.852Z,100799.03
2022-12-11T11:02:32.038Z,100801.88
2022-12-11T11:05:30.536Z,100800.31
2022-12-11T11:08:19.460Z,100801.09
2022-12-11T11:11:04.982Z,100802.00
2022-12-11T11:13:51.408Z,100809.81
2022-12-11T11:16:39.283Z,100797.72
2022-12-11T11:19:27.713Z,100800.13
2022-12-11T11:22:18.248Z,100792.28
2022-12-11T11:25:05.234Z,100785.22
2022-12-11T11:27:55.059Z,100779.16
2022-12-11T11:30:42.387Z,100778.50
2022-12-11T11:33:29.487Z,100780.66
2022-12-11T11:36:21.759Z,100785.34
2022-12-11T11:39:23.440Z,100785.81
2022-12-11T11:42:18.779Z,100786.22
2022-12-11T11:45:16.985Z,100780.56
2022-12-11T11:48:16.630Z,100786.78
2022-12-11T11:51:13.907Z,100785.50
2022-12-11T11:54:03.533Z,100783.41
2022-12-11T11:56:54.342Z,100781.19
2022-12-11T11:59:54.030Z,100778.06
2022-12-11T12:02:41.713Z,100763.00
2022-12-11T12:05:59.306Z,100766.66
2022-12-11T12:08:54.644Z,100760.91
2022-12-11T12:12:10.703Z,100749.94
2022-12-11T12:15:14.823Z,100759.28
2022-12-11T12:18:25.249Z,100749.97
2022-12-11T12:21:35.706Z,100749.31
2022-12-11T12:24:43.362Z,100751.28
2022-12-11T12:31:06.062Z,100740.34
2022-12-11T12:34:05.817Z,100745.63
2022-12-11T12:36:56.232Z,100736.41
2022-12-11T12:39:53.578Z,100725.50
2022-12-11T12:43:04.459Z,100725.00
2022-12-11T12:46:11.464Z,100720.34
2022-12-11T12:48:59.263Z,100727.81
2022-12-11T12:51:46.073Z,100719.63
2022-12-11T12:54:33.604Z,100725.34
2022-12-11T12:57:19.820Z,100717.75
2022-12-11T13:00:12.793Z,100720.53
2022-12-11T13:03:13.511Z,100715.50
2022-12-11T13:06:06.332Z,100719.75
2022-12-11T13:08:52.759Z,100709.72
2022-12-11T13:11:38.315Z,100719.84
2022-12-11T13:14:28.143Z,100729.66
2022-12-11T13:17:22.777Z,100728.47
2022-12-11T13:20:20.510Z,100734.88
2022-12-11T13:23:06.145Z,100737.16
2022-12-11T13:26:03.106Z,100741.22
2022-12-11T13:28:51.135Z,100734.06
2022-12-11T13:31:38.332Z,100744.00
2022-12-11T13:34:24.550Z,100742.91
2022-12-11T13:37:55.463Z,100749.53
2022-12-11T13:40:43.095Z,100743.47
2022-12-11T13:43:31.364Z,100746.75
2022-12-11T13:46:24.677Z,100748.13
2022-12-11T13:49:22.167Z,100746.00
2022-12-11T13:52:08.269Z,100751.50
2022-12-11T13:54:55.753Z,100749.31
2022-12-11T13:57:46.452Z,100755.06
2022-12-11T14:00:33.063Z,100755.06
2022-12-11T14:03:19.201Z,100757.69
2022-12-11T14:06:05.107Z,100752.47
2022-12-11T14:08:55.035Z,100754.25
2022-12-11T14:11:42.786Z,100753.44
2022-12-11T14:14:49.868Z,100749.91
2022-12-11T14:17:35.470Z,100748.84
2022-12-11T14:20:24.205Z,100744.31
2022-12-11T14:23:22.345Z,100749.28
2022-12-11T14:26:20.548Z,100755.63
2022-12-11T14:29:06.732Z,100750.97
2022-12-11T14:31:53.605Z,100770.00
2022-12-11T14:34:45.589Z,100767.97
2022-12-11T14:37:32.029Z,100768.75
2022-12-11T14:40:20.327Z,100776.56
2022-12-11T14:43:14.417Z,100771.78
2022-12-11T14:46:07.511Z,100771.47
2022-12-11T14:49:03.462Z,100773.88
2022-12-11T14:51:50.755Z,100779.28
2022-12-11T14:54:41.198Z,100774.28
2022-12-11T14:57:30.711Z,100772.53
2022-12-11T15:00:22.691Z,100772.34
2022-12-11T15:03:18.088Z,100767.88
2022-12-11T15:06:22.823Z,100759.06
2022-12-11T15:09:17.781Z,100756.13
2022-12-11T15:12:29.960Z,100762.66
2022-12-11T15:15:18.038Z,100757.28
2022-12-11T15:18:14.058Z,100758.78
2022-12-11T15:21:03.764Z,100764.63
2022-12-11T15:23:54.810Z,100769.59
2022-12-11T15:26:45.428Z,100761.69
2022-12-11T15:29:39.771Z,100763.41
2022-12-11T15:32:25.733Z,100779.44
2022-12-11T15:35:26.289Z,100773.28
2022-12-11T15:38:28.509Z,100777.44
2022-12-11T15:41:16.851Z,100780.19
2022-12-11T15:44:04.651Z,100783.09
2022-12-11T15:46:50.802Z,100786.84
2022-12-11T15:49:36.295Z,100781.94
2022-12-11T15:52:21.771Z,100782.13
2022-12-11T15:55:07.516Z,100777.06
2022-12-11T15:57:56.480Z,100781.94
2022-12-11T16:00:42.154Z,100774.72
2022-12-11T16:03:27.622Z,100779.56
2022-12-11T16:06:13.961Z,100775.00
2022-12-11T16:08:59.360Z,100780.00
2022-12-11T16:11:44.751Z,100780.19
2022-12-11T16:14:30.567Z,100782.81
2022-12-11T16:17:16.451Z,100786.34
2022-12-11T16:20:01.761Z,100786.66
2022-12-11T16:22:47.249Z,100788.53
2022-12-11T16:25:32.950Z,100789.53
2022-12-11T16:28:21.227Z,100788.88
2022-12-11T16:31:14.136Z,100794.94
2022-12-11T16:33:59.965Z,100783.06
2022-12-11T16:36:45.343Z,100783.06
2022-12-11T16:39:31.345Z,100777.25
2022-12-11T16:42:17.790Z,100786.78
2022-12-11T16:45:12.796Z,100778.28
2022-12-11T16:47:58.271Z,100778.28
2022-12-11T16:50:43.783Z,100784.28
2022-12-11T16:53:29.308Z,100785.13
2022-12-11T16:56:14.647Z,100784.41
2022-12-11T16:59:04.531Z,100785.31
2022-12-11T17:01:50.776Z,100785.41
2022-12-11T17:04:37.849Z,100789.78
2022-12-11T17:07:23.203Z,100793.16
2022-12-11T17:10:09.092Z,100787.09
2022-12-11T17:12:54.402Z,100789.66
2022-12-11T17:15:41.528Z,100803.09
2022-12-11T17:18:27.148Z,100786.91
2022-12-11T17:21:18.033Z,100795.50
2022-12-11T17:24:03.346Z,100799.84
2022-12-11T17:26:49.096Z,100794.78
2022-12-11T17:29:34.826Z,100794.84
2022-12-11T17:32:20.251Z,100787.09
2022-12-11T17:35:06.281Z,100790.66
2022-12-11T17:37:51.738Z,100788.91
2022-12-11T17:40:43.035Z,100793.22
2022-12-11T17:43:28.620Z,100797.47
2022-12-11T17:46:14.707Z,100798.31
2022-12-11T17:49:03.364Z,100795.78
2022-12-11T17:51:48.719Z,100797.47
2022-12-11T17:54:34.065Z,100799.91
2022-12-11T17:57:19.947Z,100790.38
2022-12-11T18:00:06.950Z,100793.72
2022-12-11T18:02:57.517Z,100791.28
2022-12-11T18:05:44.447Z,100792.03
2022-12-11T18:08:30.221Z,100792.88
2022-12-11T18:11:18.509Z,100785.31
2022-12-11T18:14:05.508Z,100796.47
2022-12-11T18:16:52.627Z,100795.69
2022-12-11T18:19:42.795Z,100785.47
2022-12-11T18:22:31.432Z,100793.16
2022-12-11T18:25:17.503Z,100787.22
2022-12-11T18:28:03.149Z,100788.84
2022-12-11T18:30:48.657Z,100791.47
2022-12-11T18:33:37.217Z,100791.53
2022-12-11T18:36:22.808Z,100783.03
2022-12-11T18:39:08.490Z,100788.09
2022-12-11T18:42:30.737Z,100786.41
2022-12-11T18:45:00.129Z,100792.28
2022-12-11T18:47:45.641Z,100791.41
2022-12-11T18:50:30.945Z,100780.28
2022-12-11T18:53:17.996Z,100779.38
2022-12-11T18:56:13.654Z,100775.06
2022-12-11T18:58:59.315Z,100787.09
2022-12-11T19:01:44.756Z,100776.81
2022-12-11T19:04:30.734Z,100777.72
2022-12-11T19:07:16.102Z,100781.22
2022-12-11T19:10:01.610Z,100777.97
2022-12-11T19:12:47.265Z,100773.63
2022-12-11T19:15:32.568Z,100777.63
2022-12-11T19:18:18.031Z,100778.66
2022-12-11T19:21:09.541Z,100776.69
2022-12-11T19:23:55.056Z,100775.91
2022-12-11T19:26:40.968Z,100780.84
2022-12-11T19:29:29.362Z,100769.50
2022-12-11T19:32:14.933Z,100769.56
2022-12-11T19:35:00.408Z,100773.75
2022-12-11T19:37:45.987Z,100763.50
2022-12-11T19:40:31.655Z,100770.38
2022-12-11T19:43:17.223Z,100771.03
2022-12-11T19:46:08.167Z,100770.19
2022-12-11T19:48:55.992Z,100768.63
2022-12-11T19:51:42.791Z,100768.75
2022-12-11T19:54:28.178Z,100765.13
2022-12-11T19:57:13.739Z,100764.19
2022-12-11T20:00:01.061Z,100760.66
2022-12-11T20:02:46.730Z,100764.19
2022-12-11T20:05:31.940Z,100769.38
2022-12-11T20:11:23.070Z,100761.56
2022-12-11T20:14:09.376Z,100761.56
2022-12-11T20:17:13.819Z,100764.94
2022-12-11T20:19:59.567Z,100764.06
2022-12-11T20:22:44.845Z,100761.50
2022-12-11T20:25:30.424Z,100758.94
2022-12-11T20:28:15.783Z,100759.84
2022-12-11T20:31:14.859Z,100759.06
2022-12-11T20:34:05.035Z,100764.06
2022-12-11T20:36:52.725Z,100760.66
2022-12-11T20:39:38.322Z,100759.78
2022-12-11T20:42:23.954Z,100752.97
2022-12-11T20:45:10.039Z,100754.84
2022-12-11T20:47:55.796Z,100757.22
2022-12-11T20:50:41.265Z,100757.34
2022-12-11T20:53:28.523Z,100757.34
2022-12-11T20:56:18.193Z,100755.66
2022-12-11T20:59:03.516Z,100758.09
2022-12-11T21:01:49.666Z,100756.44
2022-12-11T21:04:42.586Z,100753.03
2022-12-11T21:07:28.396Z,100761.56
2022-12-11T21:10:14.035Z,100755.41
2022-12-11T21:12:59.675Z,100761.50
2022-12-11T21:15:46.134Z,100760.66
2022-12-11T21:18:31.532Z,100763.09
2022-12-11T21:21:17.910Z,100760.41
2022-12-11T21:24:04.011Z,100768.16
2022-12-11T21:26:50.289Z,100760.47
2022-12-11T21:29:35.997Z,100766.41
2022-12-11T21:32:21.559Z,100762.78
2022-12-11T21:35:08.377Z,100770.53
2022-12-11T21:37:53.941Z,100770.66
2022-12-11T21:40:39.325Z,100766.41
2022-12-11T21:43:24.984Z,100772.31
2022-12-11T21:46:15.522Z,100769.75
2022-12-11T21:49:01.157Z,100772.97
2022-12-11T21:51:47.668Z,100766.88
2022-12-11T21:54:33.349Z,100765.22
2022-12-11T21:57:24.368Z,100762.59
2022-12-11T22:00:12.646Z,100771.22
2022-12-11T22:02:58.032Z,100759.97
2022-12-11T22:05:43.258Z,100758.09
2022-12-11T22:08:28.627Z,100761.50
2022-12-11T22:11:14.361Z,100758.03
2022-12-11T22:13:59.957Z,100756.94
2022-12-11T22:16:46.110Z,100763.81
2022-12-11T22:19:32.872Z,100753.69
2022-12-11T22:22:19.383Z,100758.94
2022-12-11T22:25:07.956Z,100763.00
2022-12-11T22:27:53.467Z,100757.00
2022-12-11T22:30:39.834Z,100765.16
2022-12-11T22:33:25.180Z,100763.28
2022-12-11T22:36:11.408Z,100759.78
2022-12-11T22:38:57.096Z,100759.72
2022-12-11T22:41:43.292Z,100757.75
2022-12-11T22:44:28.855Z,100755.44
2022-12-11T22:47:14.262Z,100757.09
2022-12-11T22:49:59.689Z,100766.56
2022-12-11T22:52:45.612Z,100760.56
2022-12-11T22:55:31.823Z,100763.94
2022-12-11T22:58:21.616Z,100766.66
2022-12-11T23:01:17.509Z,100770.88
2022-12-11T23:04:03.405Z,100776.75
2022-12-11T23:06:48.760Z,100770.81
2022-12-11T23:09:34.309Z,100770.16
2022-12-11T23:12:19.728Z,100764.16
2022-12-11T23:15:06.856Z,100772.78
2022-12-11T23:17:52.568Z,100767.41
2022-12-11T23:20:38.022Z,100766.31
2022-12-11T23:23:23.714Z,100764.47
2022-12-11T23:26:11.593Z,100766.31
2022-12-11T23:28:59.204Z,100766.56
2022-12-11T23:31:44.900Z,100769.00
2022-12-11T23:34:30.430Z,100761.25
2022-12-11T23:37:15.883Z,100761.91
2022-12-11T23:40:01.327Z,100759.53
2022-12-11T23:42:46.645Z,100755.31
2022-12-11T23:45:32.039Z,100755.31
2022-12-11T23:48:18.195Z,100753.75
2022-12-11T23:51:05.187Z,100749.47
2022-12-11T23:53:51.099Z,100754.78
2022-12-11T23:56:36.853Z,100750.47
2022-12-11T23:59:22.166Z,100751.97
